Time;durP1;ratioP1;P1;durP2;ratioP2;P2;SDS_P1;SDS_P2;PMS_P1;PMS_P2;Temp;Humidity;BMP_temperature;BMP_pressure;BME280_temperature;BME280_humidity;BME280_pressure;Samples;Min_cycle;Max_cycle;Signal;HPM_P1;HPM_P2
2024/03/05 00:00:14;;;;;;;31.23;13.53;;;;;;;;;;5050372;28;20038;-55
2024/03/05 00:02:40;;;;;;;31.80;12.45;;;;;;;;;;5055760;28;20021;-58
2024/03/05 00:05:07;;;;;;;26.45;11.90;;;;;;;;;;5068005;28;20033;-56
2024/03/05 00:07:33;;;;;;;28.30;12.45;;;;;;;;;;5055939;28;20025;-56
2024/03/05 00:09:58;;;;;;;31.95;13.95;;;;;;;;;;5055454;28;20045;-57
2024/03/05 00:12:24;;;;;;;24.17;11.75;;;;;;;;;;5060373;28;20043;-55
2024/03/05 00:14:49;;;;;;;26.80;10.77;;;;;;;;;;5055449;28;20034;-57
2024/03/05 00:17:15;;;;;;;25.02;12.25;;;;;;;;;;5055474;28;20103;-56
2024/03/05 00:19:41;;;;;;;26.20;12.47;;;;;;;;;;5054929;28;20101;-55
2024/03/05 00:22:06;;;;;;;25.30;11.35;;;;;;;;;;5056365;28;20038;-57
2024/03/05 00:24:31;;;;;;;31.80;12.10;;;;;;;;;;5054705;28;20033;-58
2024/03/05 00:26:57;;;;;;;30.80;12.50;;;;;;;;;;5055421;28;20025;-56
2024/03/05 00:29:22;;;;;;;27.70;12.37;;;;;;;;;;5055527;28;20128;-57
2024/03/05 00:31:47;;;;;;;27.60;11.97;;;;;;;;;;5060426;28;20058;-55
2024/03/05 00:34:13;;;;;;;32.17;13.37;;;;;;;;;;5055353;28;20305;-56
2024/03/05 00:36:39;;;;;;;30.27;12.68;;;;;;;;;;5055338;28;20025;-54
2024/03/05 00:39:04;;;;;;;29.67;12.33;;;;;;;;;;5051154;28;20061;-57
2024/03/05 00:41:29;;;;;;;32.43;14.47;;;;;;;;;;5051214;28;20029;-57
2024/03/05 00:43:55;;;;;;;31.40;14.18;;;;;;;;;;5055910;28;20089;-56
2024/03/05 00:46:20;;;;;;;30.13;12.47;;;;;;;;;;5060846;28;20043;-57
2024/03/05 00:48:46;;;;;;;32.90;13.67;;;;;;;;;;5055116;28;20025;-57
2024/03/05 00:51:12;;;;;;;34.30;14.20;;;;;;;;;;5054934;28;20037;-58
2024/03/05 00:53:37;;;;;;;37.97;14.53;;;;;;;;;;5056162;28;20037;-57
2024/03/05 00:56:03;;;;;;;32.58;13.32;;;;;;;;;;5064475;28;20294;-58
2024/03/05 00:58:29;;;;;;;30.43;14.37;;;;;;;;;;5046040;28;20030;-56
2024/03/05 01:00:54;;;;;;;41.33;14.10;;;;;;;;;;5053289;28;20463;-56
2024/03/05 01:03:20;;;;;;;33.33;13.53;;;;;;;;;;5055794;28;20056;-55
2024/03/05 01:05:47;;;;;;;43.83;15.77;;;;;;;;;;5065962;28;20028;-55
2024/03/05 01:08:12;;;;;;;36.60;15.07;;;;;;;;;;5053496;28;20056;-57
2024/03/05 01:10:39;;;;;;;30.98;14.20;;;;;;;;;;5051594;28;20100;-55
2024/03/05 01:13:04;;;;;;;29.75;14.48;;;;;;;;;;5059144;28;20038;-57
2024/03/05 01:15:30;;;;;;;39.60;15.45;;;;;;;;;;5060484;28;20163;-56
2024/03/05 01:17:57;;;;;;;33.10;15.47;;;;;;;;;;5054732;28;20092;-53
2024/03/05 01:20:23;;;;;;;37.95;15.90;;;;;;;;;;5054569;28;20346;-55
2024/03/05 01:22:48;;;;;;;35.03;14.63;;;;;;;;;;5053543;28;20044;-56
2024/03/05 01:25:14;;;;;;;34.10;13.77;;;;;;;;;;5057680;28;20120;-58
2024/03/05 01:27:39;;;;;;;37.13;15.63;;;;;;;;;;5054145;28;20060;-55
2024/03/05 01:30:11;;;;;;;36.43;16.30;;;;;;;;;;5054775;28;20279;-55
2024/03/05 01:32:37;;;;;;;37.17;15.27;;;;;;;;;;5054200;28;20040;-59
2024/03/05 01:35:08;;;;;;;43.58;17.40;;;;;;;;;;5053625;28;20037;-57
2024/03/05 01:37:35;;;;;;;46.30;16.65;;;;;;;;;;5054555;28;20025;-56
2024/03/05 01:40:00;;;;;;;38.50;16.50;;;;;;;;;;5050860;28;20037;-54
2024/03/05 01:42:26;;;;;;;31.65;15.07;;;;;;;;;;5053712;28;20027;-58
2024/03/05 01:44:51;;;;;;;40.27;17.03;;;;;;;;;;5049908;28;20030;-57
2024/03/05 01:47:17;;;;;;;45.50;16.97;;;;;;;;;;5064894;28;20172;-56
2024/03/05 01:49:43;;;;;;;38.47;15.77;;;;;;;;;;5053923;28;20067;-54
2024/03/05 01:52:09;;;;;;;45.67;17.55;;;;;;;;;;5054173;28;20047;-57
2024/03/05 01:54:35;;;;;;;42.80;18.17;;;;;;;;;;5054267;28;20095;-56
2024/03/05 01:57:02;;;;;;;47.03;17.50;;;;;;;;;;5054514;28;20037;-55
2024/03/05 01:59:28;;;;;;;43.05;16.58;;;;;;;;;;5054190;28;20052;-55
2024/03/05 02:01:56;;;;;;;39.13;16.60;;;;;;;;;;5054200;28;20025;-57
2024/03/05 02:04:23;;;;;;;43.30;16.45;;;;;;;;;;5058819;28;20339;-55
2024/03/05 02:06:51;;;;;;;47.50;17.73;;;;;;;;;;5051349;28;20032;-57
2024/03/05 02:09:17;;;;;;;45.55;19.17;;;;;;;;;;5054199;28;20030;-56
2024/03/05 02:11:43;;;;;;;45.30;18.63;;;;;;;;;;5054165;28;20041;-55
2024/03/05 02:14:09;;;;;;;40.33;17.77;;;;;;;;;;5054901;28;20037;-54
2024/03/05 02:16:35;;;;;;;42.45;17.60;;;;;;;;;;5059188;28;20026;-57
2024/03/05 02:19:00;;;;;;;48.80;17.97;;;;;;;;;;5058007;28;20104;-55
2024/03/05 02:21:26;;;;;;;45.33;18.45;;;;;;;;;;5058232;28;20025;-56
2024/03/05 02:23:52;;;;;;;50.77;18.50;;;;;;;;;;5068965;28;20057;-57
2024/03/05 02:26:18;;;;;;;49.43;19.03;;;;;;;;;;5058248;28;20085;-58
2024/03/05 02:28:47;;;;;;;49.38;18.35;;;;;;;;;;5057883;28;20029;-53
2024/03/05 02:31:14;;;;;;;48.78;19.42;;;;;;;;;;5058018;28;20049;-55
2024/03/05 02:33:42;;;;;;;48.83;18.43;;;;;;;;;;5064312;28;20024;-56
2024/03/05 02:36:08;;;;;;;50.10;18.90;;;;;;;;;;5058009;28;20251;-56
2024/03/05 02:38:34;;;;;;;39.53;17.85;;;;;;;;;;5057645;28;20026;-57
2024/03/05 02:41:00;;;;;;;42.17;16.93;;;;;;;;;;5058010;28;20037;-55
2024/03/05 02:43:26;;;;;;;49.55;19.05;;;;;;;;;;5059810;28;20266;-55
2024/03/05 02:45:51;;;;;;;46.63;18.03;;;;;;;;;;5057560;28;20049;-55
2024/03/05 02:48:17;;;;;;;52.00;19.17;;;;;;;;;;5060253;28;20072;-57
2024/03/05 02:50:43;;;;;;;45.63;18.43;;;;;;;;;;5056260;28;20034;-57
2024/03/05 02:53:08;;;;;;;47.03;18.27;;;;;;;;;;5064771;28;20270;-56
2024/03/05 02:55:38;;;;;;;49.43;18.93;;;;;;;;;;5068287;28;20034;-57
2024/03/05 02:58:06;;;;;;;47.92;19.60;;;;;;;;;;5048515;28;20262;-55
2024/03/05 03:00:32;;;;;;;43.80;17.63;;;;;;;;;;5045999;28;20037;-56
2024/03/05 03:02:58;;;;;;;52.88;19.42;;;;;;;;;;5054105;28;20025;-55
2024/03/05 03:05:24;;;;;;;43.47;18.83;;;;;;;;;;5061979;28;20032;-55
2024/03/05 03:07:50;;;;;;;53.17;20.37;;;;;;;;;;5058561;28;20270;-55
2024/03/05 03:10:16;;;;;;;46.95;19.35;;;;;;;;;;5051913;28;20081;-56
2024/03/05 03:12:42;;;;;;;46.37;18.80;;;;;;;;;;5050158;28;20048;-55
2024/03/05 03:15:08;;;;;;;53.90;17.05;;;;;;;;;;5060810;28;20266;-57
2024/03/05 03:17:34;;;;;;;48.38;19.05;;;;;;;;;;5056817;28;20033;-57
2024/03/05 03:19:59;;;;;;;49.35;18.83;;;;;;;;;;5053666;28;20045;-58
2024/03/05 03:22:26;;;;;;;54.00;20.03;;;;;;;;;;5053558;28;20093;-58
2024/03/05 03:24:51;;;;;;;56.58;19.48;;;;;;;;;;5059004;28;20101;-58
2024/03/05 03:27:19;;;;;;;53.55;18.85;;;;;;;;;;5053219;28;20034;-56
2024/03/05 03:29:45;;;;;;;44.63;18.63;;;;;;;;;;5051468;28;20029;-58
2024/03/05 03:32:11;;;;;;;42.83;19.83;;;;;;;;;;5056409;28;20037;-53
2024/03/05 03:34:42;;;;;;;46.80;19.87;;;;;;;;;;5066770;28;20123;-54
2024/03/05 03:37:08;;;;;;;44.10;18.90;;;;;;;;;;5055804;28;20718;-54
2024/03/05 03:39:34;;;;;;;53.50;20.35;;;;;;;;;;5056628;28;20042;-58
2024/03/05 03:41:59;;;;;;;47.65;18.63;;;;;;;;;;5056163;28;20033;-56
2024/03/05 03:44:25;;;;;;;48.93;19.50;;;;;;;;;;5065978;28;20056;-55
2024/03/05 03:46:51;;;;;;;40.55;18.33;;;;;;;;;;5060109;28;20040;-55
2024/03/05 03:49:19;;;;;;;53.07;20.23;;;;;;;;;;5064447;28;20069;-54
2024/03/05 03:51:45;;;;;;;46.00;20.55;;;;;;;;;;5056011;28;20041;-53
2024/03/05 03:54:10;;;;;;;51.03;20.65;;;;;;;;;;5058344;28;20037;-57
2024/03/05 03:56:36;;;;;;;48.03;19.30;;;;;;;;;;5047298;28;20051;-57
2024/03/05 03:59:02;;;;;;;51.60;20.73;;;;;;;;;;5053403;28;20283;-55
2024/03/05 04:01:29;;;;;;;41.38;18.90;;;;;;;;;;5050263;28;20045;-57
2024/03/05 04:03:56;;;;;;;50.55;20.27;;;;;;;;;;5049938;28;20084;-57
2024/03/05 04:06:22;;;;;;;45.88;19.85;;;;;;;;;;5054972;28;20029;-58
2024/03/05 04:08:47;;;;;;;48.97;20.33;;;;;;;;;;5056605;28;20030;-55
2024/03/05 04:11:12;;;;;;;48.00;20.45;;;;;;;;;;5056075;28;20025;-55
2024/03/05 04:13:38;;;;;;;48.73;19.20;;;;;;;;;;5055409;28;20037;-55
2024/03/05 04:16:04;;;;;;;50.60;21.47;;;;;;;;;;5055739;28;20297;-54
2024/03/05 04:18:30;;;;;;;48.33;20.13;;;;;;;;;;5056463;28;20059;-57
2024/03/05 04:20:56;;;;;;;58.88;21.80;;;;;;;;;;5055709;28;20029;-55
2024/03/05 04:23:22;;;;;;;41.75;19.85;;;;;;;;;;5055963;28;20041;-57
2024/03/05 04:25:50;;;;;;;51.30;20.53;;;;;;;;;;5056699;28;20037;-57
2024/03/05 04:28:16;;;;;;;48.17;21.25;;;;;;;;;;5063732;28;20032;-56
2024/03/05 04:30:46;;;;;;;49.95;20.92;;;;;;;;;;5057267;28;20044;-58
2024/03/05 04:33:11;;;;;;;52.42;20.70;;;;;;;;;;5055953;28;20461;-52
2024/03/05 04:35:37;;;;;;;51.20;19.93;;;;;;;;;;5058377;28;20044;-56
2024/03/05 04:38:05;;;;;;;46.30;20.88;;;;;;;;;;5059789;28;20085;-50
2024/03/05 04:40:34;;;;;;;53.03;20.33;;;;;;;;;;5055027;28;20057;-57
2024/03/05 04:43:00;;;;;;;47.15;21.15;;;;;;;;;;5055676;28;20029;-56
2024/03/05 04:45:25;;;;;;;51.75;22.13;;;;;;;;;;5061570;28;20089;-54
2024/03/05 04:47:52;;;;;;;57.53;24.98;;;;;;;;;;5055371;28;20025;-57
2024/03/05 04:50:18;;;;;;;55.87;21.97;;;;;;;;;;5055394;28;20060;-56
2024/03/05 04:52:44;;;;;;;47.50;21.33;;;;;;;;;;5055099;28;20274;-57
2024/03/05 04:55:10;;;;;;;48.53;22.60;;;;;;;;;;5058678;28;20045;-58
2024/03/05 04:57:35;;;;;;;56.33;23.20;;;;;;;;;;5060840;28;20056;-56
2024/03/05 05:00:01;;;;;;;58.97;23.87;;;;;;;;;;5055231;28;20033;-57
2024/03/05 05:02:26;;;;;;;54.57;22.60;;;;;;;;;;5055322;28;20034;-57
2024/03/05 05:04:52;;;;;;;65.22;22.05;;;;;;;;;;5055519;28;20033;-55
2024/03/05 05:07:22;;;;;;;53.43;22.30;;;;;;;;;;5055920;28;20033;-58
2024/03/05 05:09:49;;;;;;;51.65;21.77;;;;;;;;;;5054201;28;20271;-56
2024/03/05 05:12:15;;;;;;;54.87;24.23;;;;;;;;;;5054940;28;20155;-57
2024/03/05 05:14:40;;;;;;;50.88;22.67;;;;;;;;;;5058392;28;20029;-57
2024/03/05 05:17:05;;;;;;;54.30;24.00;;;;;;;;;;5060814;28;20035;-56
2024/03/05 05:19:31;;;;;;;53.95;24.17;;;;;;;;;;5054828;28;20036;-55
2024/03/05 05:21:57;;;;;;;50.30;24.05;;;;;;;;;;5055043;28;20036;-57
2024/03/05 05:24:23;;;;;;;62.10;24.13;;;;;;;;;;5054853;28;20021;-57
2024/03/05 05:26:48;;;;;;;58.50;23.85;;;;;;;;;;5048100;28;20299;-58
2024/03/05 05:29:14;;;;;;;59.27;24.80;;;;;;;;;;5054672;28;20029;-55
2024/03/05 05:31:40;;;;;;;59.38;24.25;;;;;;;;;;5054872;28;20029;-56
2024/03/05 05:34:06;;;;;;;59.70;25.17;;;;;;;;;;5054643;28;20041;-53
2024/03/05 05:36:31;;;;;;;63.33;26.80;;;;;;;;;;5058352;28;20033;-53
2024/03/05 05:38:59;;;;;;;65.15;26.10;;;;;;;;;;5054466;28;20038;-55
2024/03/05 05:41:25;;;;;;;59.75;24.75;;;;;;;;;;5054588;28;20035;-56
2024/03/05 05:43:50;;;;;;;63.88;25.10;;;;;;;;;;5054240;28;20029;-58
2024/03/05 05:46:18;;;;;;;65.18;26.63;;;;;;;;;;5051008;28;20085;-57
2024/03/05 05:48:49;;;;;;;60.83;24.50;;;;;;;;;;5047977;28;20088;-56
2024/03/05 05:51:15;;;;;;;58.88;24.30;;;;;;;;;;5047501;28;20037;-56
2024/03/05 05:53:40;;;;;;;137.40;51.35;;;;;;;;;;5054351;28;20092;-57
2024/03/05 05:56:06;;;;;;;65.43;26.33;;;;;;;;;;5062502;28;20345;-56
2024/03/05 05:58:33;;;;;;;59.42;25.33;;;;;;;;;;5053648;28;20025;-55
2024/03/05 06:00:58;;;;;;;;;;;;;;;;;;5050757;28;20037;-56
2024/03/05 06:03:24;;;;;;;61.77;23.83;;;;;;;;;;5044903;28;19931;-58
2024/03/05 06:05:49;;;;;;;62.53;25.90;;;;;;;;;;5058457;28;20052;-57
2024/03/05 06:08:15;;;;;;;63.08;25.23;;;;;;;;;;5054140;28;20017;-58
2024/03/05 06:10:44;;;;;;;67.67;25.07;;;;;;;;;;5049940;28;20084;-58
2024/03/05 06:13:10;;;;;;;63.53;25.60;;;;;;;;;;5042892;28;20302;-56
2024/03/05 06:15:38;;;;;;;65.13;26.73;;;;;;;;;;5053641;28;20042;-53
2024/03/05 06:18:04;;;;;;;81.95;27.90;;;;;;;;;;5053839;28;20029;-55
2024/03/05 06:20:30;;;;;;;75.05;27.27;;;;;;;;;;5062080;28;20044;-57
2024/03/05 06:23:00;;;;;;;76.75;28.17;;;;;;;;;;5041447;28;20029;-58
2024/03/05 06:25:29;;;;;;;73.57;27.05;;;;;;;;;;5055162;28;20029;-56
2024/03/05 06:27:55;;;;;;;66.78;26.35;;;;;;;;;;5057929;28;20033;-58
2024/03/05 06:30:22;;;;;;;65.23;25.73;;;;;;;;;;5062365;28;20960;-56
2024/03/05 06:32:49;;;;;;;66.05;28.00;;;;;;;;;;5054234;28;20063;-56
2024/03/05 06:35:14;;;;;;;69.88;26.17;;;;;;;;;;5053865;28;20034;-56
2024/03/05 06:37:40;;;;;;;69.17;27.30;;;;;;;;;;5049766;28;20040;-57
2024/03/05 06:40:09;;;;;;;68.25;28.30;;;;;;;;;;5053512;28;20099;-56
2024/03/05 06:42:35;;;;;;;73.47;28.90;;;;;;;;;;5046042;28;20029;-56
2024/03/05 06:45:06;;;;;;;69.95;27.70;;;;;;;;;;5053854;28;20088;-55
2024/03/05 06:47:38;;;;;;;75.50;28.58;;;;;;;;;;5060212;28;20028;-55
2024/03/05 06:50:07;;;;;;;70.28;27.88;;;;;;;;;;5053197;28;20033;-55
2024/03/05 06:58:04;;;;;;;74.03;28.33;;;;;;;;;;5046092;28;20030;-58
2024/03/05 07:00:30;;;;;;;78.18;31.38;;;;;;;;;;5053116;28;20041;-56
2024/03/05 07:02:55;;;;;;;77.20;28.03;;;;;;;;;;5052433;28;20026;-56
2024/03/05 07:05:22;;;;;;;77.30;28.08;;;;;;;;;;5057093;28;20053;-55
2024/03/05 07:07:48;;;;;;;79.97;29.98;;;;;;;;;;5058262;28;20034;-55
2024/03/05 07:10:14;;;;;;;79.78;30.92;;;;;;;;;;5059008;28;20036;-56
2024/03/05 07:12:40;;;;;;;80.03;30.10;;;;;;;;;;5056143;28;20033;-57
2024/03/05 07:15:09;;;;;;;70.63;27.67;;;;;;;;;;5057013;28;20029;-56
2024/03/05 07:17:36;;;;;;;91.07;30.02;;;;;;;;;;5066490;28;20034;-57
2024/03/05 07:20:03;;;;;;;75.25;30.02;;;;;;;;;;5057147;28;20061;-56
2024/03/05 07:22:29;;;;;;;83.80;32.13;;;;;;;;;;5056983;28;20102;-57
2024/03/05 07:24:55;;;;;;;73.50;29.13;;;;;;;;;;5056184;28;20021;-56
2024/03/05 07:27:20;;;;;;;79.05;30.23;;;;;;;;;;5062660;28;20327;-52
2024/03/05 07:29:46;;;;;;;81.65;30.60;;;;;;;;;;5058982;28;20037;-57
2024/03/05 07:32:15;;;;;;;79.17;28.57;;;;;;;;;;5051465;28;20029;-57
2024/03/05 07:34:40;;;;;;;78.38;31.35;;;;;;;;;;5056840;28;20093;-58
2024/03/05 07:37:06;;;;;;;77.43;30.57;;;;;;;;;;5053147;28;20034;-57
2024/03/05 07:39:31;;;;;;;86.07;32.10;;;;;;;;;;5061903;28;20291;-56
2024/03/05 07:41:58;;;;;;;98.53;32.60;;;;;;;;;;5056689;28;20034;-57
2024/03/05 07:44:23;;;;;;;;;;;;;;;;;;5056973;28;20059;-57
2024/03/05 07:46:49;;;;;;;85.72;31.15;;;;;;;;;;5056653;28;19897;-57
2024/03/05 07:49:15;;;;;;;86.87;29.80;;;;;;;;;;5056149;28;20037;-57
2024/03/05 07:51:40;;;;;;;90.37;32.37;;;;;;;;;;5048378;28;20270;-57
2024/03/05 07:54:07;;;;;;;;;;;;;;;;;;5056908;28;20060;-59
2024/03/05 07:56:34;;;;;;;81.07;30.03;;;;;;;;;;5053898;28;19909;-56
2024/03/05 07:58:59;;;;;;;85.57;32.50;;;;;;;;;;5062205;28;20033;-59
2024/03/05 08:01:25;;;;;;;85.05;32.17;;;;;;;;;;5055132;28;20025;-58
2024/03/05 08:03:51;;;;;;;96.27;34.90;;;;;;;;;;5056189;28;20084;-58
2024/03/05 08:06:17;;;;;;;;;;;;;;;;;;5052266;28;20028;-56
2024/03/05 08:08:42;;;;;;;91.67;32.27;;;;;;;;;;5061710;28;19909;-57
2024/03/05 08:11:07;;;;;;;85.43;32.65;;;;;;;;;;5055169;28;20026;-57
2024/03/05 08:13:36;;;;;;;98.00;35.50;;;;;;;;;;5055651;28;20037;-57
2024/03/05 08:16:04;;;;;;;92.20;32.92;;;;;;;;;;5066791;28;20034;-54
2024/03/05 08:18:30;;;;;;;101.65;33.97;;;;;;;;;;5055878;28;20057;-58
2024/03/05 08:20:56;;;;;;;89.28;32.30;;;;;;;;;;5055562;28;20052;-57
2024/03/05 08:23:22;;;;;;;88.27;34.70;;;;;;;;;;5056044;28;20056;-58
2024/03/05 08:25:48;;;;;;;85.85;33.58;;;;;;;;;;5061774;28;20037;-58
2024/03/05 08:28:13;;;;;;;92.93;34.80;;;;;;;;;;5056609;28;20038;-58
2024/03/05 08:30:42;;;;;;;102.70;36.80;;;;;;;;;;5059789;28;20330;-58
2024/03/05 08:33:08;;;;;;;89.18;33.60;;;;;;;;;;5055535;28;20274;-57
2024/03/05 08:35:33;;;;;;;90.07;34.80;;;;;;;;;;5055247;28;20029;-59
2024/03/05 08:37:59;;;;;;;95.70;34.73;;;;;;;;;;5060404;28;20325;-56
2024/03/05 08:40:24;;;;;;;83.87;33.43;;;;;;;;;;5053748;28;20033;-59
2024/03/05 08:42:51;;;;;;;86.90;34.08;;;;;;;;;;5037599;28;20809;-55
2024/03/05 08:45:20;;;;;;;82.60;31.92;;;;;;;;;;5043862;28;20033;-58
2024/03/05 08:47:52;;;;;;;93.53;34.72;;;;;;;;;;5061215;28;20063;-56
2024/03/05 08:50:18;;;;;;;82.75;33.88;;;;;;;;;;5058432;28;20056;-56
2024/03/05 08:52:43;;;;;;;95.47;35.63;;;;;;;;;;5052083;28;20038;-57
2024/03/05 08:55:10;;;;;;;87.80;33.55;;;;;;;;;;5048633;28;20065;-58
2024/03/05 08:57:40;;;;;;;81.55;34.28;;;;;;;;;;5042789;28;20029;-58
2024/03/05 09:00:06;;;;;;;91.77;34.47;;;;;;;;;;5049816;28;20029;-58
2024/03/05 09:02:32;;;;;;;87.57;33.95;;;;;;;;;;5042413;28;20292;-57
2024/03/05 09:04:58;;;;;;;94.60;33.22;;;;;;;;;;5038343;28;20121;-57
2024/03/05 09:07:24;;;;;;;81.07;31.75;;;;;;;;;;5055031;28;20049;-57
2024/03/05 09:09:49;;;;;;;87.90;33.42;;;;;;;;;;5056726;28;20029;-55
2024/03/05 09:12:15;;;;;;;87.78;33.25;;;;;;;;;;5057453;28;20044;-56
2024/03/05 09:14:41;;;;;;;84.10;32.97;;;;;;;;;;5036411;28;20037;-55
2024/03/05 09:17:06;;;;;;;93.72;35.17;;;;;;;;;;5052926;28;20060;-58
2024/03/05 09:19:31;;;;;;;86.73;33.90;;;;;;;;;;5059733;28;20038;-55
2024/03/05 09:21:57;;;;;;;95.90;36.20;;;;;;;;;;5060323;28;20064;-56
2024/03/05 09:24:23;;;;;;;99.55;37.47;;;;;;;;;;5041358;28;20029;-56
2024/03/05 09:26:49;;;;;;;97.97;36.77;;;;;;;;;;5054253;28;20052;-58
2024/03/05 09:29:16;;;;;;;94.75;35.67;;;;;;;;;;5053421;28;20029;-56
2024/03/05 09:31:42;;;;;;;87.05;35.42;;;;;;;;;;5049432;28;20093;-57
2024/03/05 09:34:07;;;;;;;82.30;33.40;;;;;;;;;;5050282;28;20033;-59
2024/03/05 09:36:33;;;;;;;90.37;36.73;;;;;;;;;;5048973;28;20041;-58
2024/03/05 09:38:58;;;;;;;92.33;35.13;;;;;;;;;;5057207;28;20046;-57
2024/03/05 09:41:24;;;;;;;94.30;35.03;;;;;;;;;;5052486;28;20512;-57
2024/03/05 09:43:50;;;;;;;86.72;34.38;;;;;;;;;;5053840;28;20030;-56
2024/03/05 09:46:17;;;;;;;97.80;35.58;;;;;;;;;;5040740;28;20056;-56
2024/03/05 09:48:43;;;;;;;90.03;38.53;;;;;;;;;;5049559;28;20032;-57
2024/03/05 09:51:09;;;;;;;94.15;34.78;;;;;;;;;;5051441;28;20049;-58
2024/03/05 09:53:36;;;;;;;100.15;38.35;;;;;;;;;;5046975;28;20037;-56
2024/03/05 09:56:02;;;;;;;94.20;36.38;;;;;;;;;;5047513;28;20113;-56
2024/03/05 09:58:39;;;;;;;98.13;38.55;;;;;;;;;;5041023;28;20029;-57
2024/03/05 10:01:07;;;;;;;108.07;41.95;;;;;;;;;;5058276;28;20037;-57
2024/03/05 10:03:34;;;;;;;95.32;35.80;;;;;;;;;;5045784;28;20029;-59
2024/03/05 10:05:59;;;;;;;91.70;36.08;;;;;;;;;;5046729;28;20034;-57
2024/03/05 10:08:25;;;;;;;97.68;36.75;;;;;;;;;;5048352;28;20053;-59
2024/03/05 10:10:59;;;;;;;96.38;35.78;;;;;;;;;;5053305;28;20057;-53
2024/03/05 10:13:29;;;;;;;86.03;34.95;;;;;;;;;;5051799;28;20030;-56
2024/03/05 10:16:11;;;;;;;87.43;36.33;;;;;;;;;;5053836;28;20049;-58
2024/03/05 10:18:37;;;;;;;91.13;36.53;;;;;;;;;;5045278;28;20270;-58
2024/03/05 10:21:34;;;;;;;86.33;35.30;;;;;;;;;;5057685;28;20036;-56
2024/03/05 10:24:01;;;;;;;92.97;37.92;;;;;;;;;;5041800;28;20097;-57
2024/03/05 10:26:28;;;;;;;73.72;35.15;;;;;;;;;;5045000;28;20025;-56
2024/03/05 10:28:55;;;;;;;79.05;34.45;;;;;;;;;;5049460;28;20030;-56
2024/03/05 10:31:27;;;;;;;84.07;35.47;;;;;;;;;;5049852;28;20044;-56
2024/03/05 10:33:53;;;;;;;71.80;29.93;;;;;;;;;;5048320;28;20289;-56
2024/03/05 10:36:29;;;;;;;76.97;32.25;;;;;;;;;;5053178;28;20262;-58
2024/03/05 10:38:55;;;;;;;74.97;32.60;;;;;;;;;;5057588;28;20025;-57
2024/03/05 10:41:27;;;;;;;80.15;32.40;;;;;;;;;;5050585;28;20347;-56
2024/03/05 10:43:52;;;;;;;56.53;27.23;;;;;;;;;;5051444;28;20040;-54
2024/03/05 10:46:21;;;;;;;64.77;28.13;;;;;;;;;;5057534;28;20318;-57
2024/03/05 10:48:49;;;;;;;66.00;29.33;;;;;;;;;;5056876;28;20040;-60
2024/03/05 10:51:15;;;;;;;61.83;27.53;;;;;;;;;;5050508;28;20293;-56
2024/03/05 10:53:41;;;;;;;56.63;26.10;;;;;;;;;;5051447;28;20288;-57
2024/03/05 10:56:06;;;;;;;70.90;27.73;;;;;;;;;;5045490;28;20155;-59
2024/03/05 11:01:06;;;;;;;64.77;26.97;;;;;;;;;;5062184;28;20282;-59
2024/03/05 11:03:38;;;;;;;55.90;24.83;;;;;;;;;;5056616;28;20255;-58
2024/03/05 11:06:06;;;;;;;53.07;24.27;;;;;;;;;;5056207;28;20281;-57
2024/03/05 11:08:35;;;;;;;53.60;25.10;;;;;;;;;;5060857;28;20265;-59
2024/03/05 11:11:02;;;;;;;53.10;23.10;;;;;;;;;;5052848;28;20274;-54
2024/03/05 11:13:30;;;;;;;42.33;21.40;;;;;;;;;;5056653;28;20330;-54
2024/03/05 11:15:56;;;;;;;47.17;21.83;;;;;;;;;;5056286;28;20258;-58
2024/03/05 11:18:28;;;;;;;45.40;22.70;;;;;;;;;;5056722;28;20269;-56
2024/03/05 11:20:53;;;;;;;49.47;21.40;;;;;;;;;;5056289;28;20034;-56
2024/03/05 11:23:20;;;;;;;45.23;22.97;;;;;;;;;;5053045;28;20417;-56
2024/03/05 11:25:46;;;;;;;49.07;22.50;;;;;;;;;;5052549;28;20298;-57
2024/03/05 11:28:12;;;;;;;53.30;21.85;;;;;;;;;;5048771;28;20285;-54
2024/03/05 11:30:41;;;;;;;50.38;20.92;;;;;;;;;;5056135;28;20093;-55
2024/03/05 11:33:15;;;;;;;55.30;23.63;;;;;;;;;;5056397;28;20088;-58
2024/03/05 11:35:43;;;;;;;47.17;23.20;;;;;;;;;;5055933;28;20293;-57
2024/03/05 11:38:10;;;;;;;56.13;23.13;;;;;;;;;;5055930;28;20273;-56
2024/03/05 11:40:37;;;;;;;46.10;23.03;;;;;;;;;;5055762;28;20279;-53
2024/03/05 11:43:04;;;;;;;50.35;23.58;;;;;;;;;;5059300;28;20321;-55
2024/03/05 11:45:46;;;;;;;51.60;24.93;;;;;;;;;;5051724;28;20021;-58
2024/03/05 11:48:18;;;;;;;53.17;23.27;;;;;;;;;;5051491;28;20267;-57
2024/03/05 11:50:44;;;;;;;49.97;23.57;;;;;;;;;;5056198;28;20267;-58
2024/03/05 11:53:10;;;;;;;45.60;23.38;;;;;;;;;;5051889;28;20333;-57
2024/03/05 11:55:36;;;;;;;55.83;25.75;;;;;;;;;;5055470;28;20105;-57
2024/03/05 11:58:03;;;;;;;55.17;24.20;;;;;;;;;;5055764;28;20044;-57
2024/03/05 12:00:29;;;;;;;50.50;23.27;;;;;;;;;;5047094;28;20278;-57
2024/03/05 12:02:55;;;;;;;50.90;24.60;;;;;;;;;;5059378;28;20053;-56
2024/03/05 12:05:21;;;;;;;49.13;22.50;;;;;;;;;;5053984;28;20025;-60
2024/03/05 12:08:07;;;;;;;54.55;24.45;;;;;;;;;;5055996;28;20029;-58
2024/03/05 12:10:35;;;;;;;45.93;22.77;;;;;;;;;;5052897;28;20036;-55
2024/03/05 12:13:03;;;;;;;50.93;21.37;;;;;;;;;;5055968;28;20301;-55
2024/03/05 12:15:30;;;;;;;36.20;18.00;;;;;;;;;;5058306;28;20255;-57
2024/03/05 12:17:56;;;;;;;29.55;15.13;;;;;;;;;;5052834;28;20294;-58
2024/03/05 12:20:22;;;;;;;30.33;15.50;;;;;;;;;;5055941;28;20059;-57
2024/03/05 12:22:49;;;;;;;29.73;13.87;;;;;;;;;;5054430;28;20030;-57
2024/03/05 12:25:15;;;;;;;30.83;15.10;;;;;;;;;;5056700;28;20251;-56
2024/03/05 12:27:46;;;;;;;25.02;13.05;;;;;;;;;;5060528;28;20047;-57
2024/03/05 12:30:12;;;;;;;28.47;15.33;;;;;;;;;;5064923;28;20037;-57
2024/03/05 12:32:42;;;;;;;28.20;12.90;;;;;;;;;;5059029;28;20350;-58
2024/03/05 12:35:14;;;;;;;25.33;13.17;;;;;;;;;;5061049;28;20258;-54
2024/03/05 12:37:43;;;;;;;25.47;13.13;;;;;;;;;;5053512;28;20251;-58
2024/03/05 12:40:15;;;;;;;27.77;13.10;;;;;;;;;;5061004;28;20281;-56
2024/03/05 12:42:45;;;;;;;26.33;12.63;;;;;;;;;;5055297;28;20253;-58
2024/03/05 12:45:15;;;;;;;26.40;12.43;;;;;;;;;;5054951;28;20274;-58
2024/03/05 12:47:41;;;;;;;25.80;11.07;;;;;;;;;;5058364;28;20254;-57
2024/03/05 12:50:07;;;;;;;23.23;12.20;;;;;;;;;;5059495;28;20330;-57
2024/03/05 12:52:33;;;;;;;20.02;10.48;;;;;;;;;;5053610;28;20037;-58
2024/03/05 12:55:05;;;;;;;23.27;12.00;;;;;;;;;;5053765;28;20093;-53
2024/03/05 12:57:31;;;;;;;18.63;10.23;;;;;;;;;;5049162;28;20017;-55
2024/03/05 13:00:00;;;;;;;25.70;10.90;;;;;;;;;;5057612;28;20286;-57
2024/03/05 13:02:26;;;;;;;18.23;10.17;;;;;;;;;;5050929;28;20071;-57
2024/03/05 13:04:51;;;;;;;18.52;10.23;;;;;;;;;;5053337;28;20262;-59
2024/03/05 13:07:17;;;;;;;23.70;11.98;;;;;;;;;;5039133;28;20026;-56
2024/03/05 13:09:43;;;;;;;20.15;9.45;;;;;;;;;;5055233;28;20048;-55
2024/03/05 13:12:08;;;;;;;21.63;10.55;;;;;;;;;;5063507;28;20082;-58
2024/03/05 13:14:34;;;;;;;17.65;9.35;;;;;;;;;;5054832;28;20040;-57
2024/03/05 13:16:59;;;;;;;17.30;8.77;;;;;;;;;;5054967;28;20053;-57
2024/03/05 13:19:26;;;;;;;;;;;;;;;;;;5055791;28;20056;-57
2024/03/05 13:21:51;;;;;;;20.17;9.90;;;;;;;;;;5057529;28;19909;-55
2024/03/05 13:24:17;;;;;;;17.37;9.40;;;;;;;;;;5054339;28;20033;-55
2024/03/05 13:26:45;;;;;;;16.88;10.13;;;;;;;;;;5054469;28;20040;-57
2024/03/05 13:29:11;;;;;;;20.57;10.83;;;;;;;;;;5054051;28;20014;-56
2024/03/05 13:31:37;;;;;;;15.70;8.83;;;;;;;;;;5057722;28;20282;-57
2024/03/05 13:34:04;;;;;;;18.70;9.48;;;;;;;;;;5051521;28;20271;-57
2024/03/05 13:36:30;;;;;;;17.20;9.23;;;;;;;;;;5053109;28;20026;-58
2024/03/05 13:38:59;;;;;;;21.23;9.00;;;;;;;;;;5054671;28;20263;-54
2024/03/05 13:41:28;;;;;;;22.43;8.40;;;;;;;;;;5055658;28;20294;-56
2024/03/05 13:43:57;;;;;;;17.23;9.20;;;;;;;;;;5061369;28;20268;-56
2024/03/05 13:46:26;;;;;;;21.13;9.60;;;;;;;;;;5058192;28;20258;-59
2024/03/05 13:48:53;;;;;;;18.70;9.23;;;;;;;;;;5054051;28;20266;-58
2024/03/05 13:51:20;;;;;;;21.80;10.50;;;;;;;;;;5064667;28;20326;-54
2024/03/05 13:53:45;;;;;;;17.13;9.52;;;;;;;;;;5051942;28;20278;-57
2024/03/05 13:56:11;;;;;;;18.67;9.73;;;;;;;;;;5043043;28;20089;-58
2024/03/05 13:58:37;;;;;;;16.10;9.02;;;;;;;;;;5053915;28;20036;-54
2024/03/05 14:01:03;;;;;;;17.92;8.60;;;;;;;;;;5050828;28;20034;-57
2024/03/05 14:03:29;;;;;;;16.33;9.60;;;;;;;;;;5053712;28;20159;-58
2024/03/05 14:05:55;;;;;;;15.97;9.27;;;;;;;;;;5053921;28;20033;-56
2024/03/05 14:08:21;;;;;;;18.63;9.00;;;;;;;;;;5053769;28;20263;-58
2024/03/05 14:10:46;;;;;;;16.65;9.02;;;;;;;;;;5057730;28;20274;-57
2024/03/05 14:13:17;;;;;;;20.02;10.00;;;;;;;;;;5059031;28;20040;-58
2024/03/05 14:15:43;;;;;;;19.40;10.03;;;;;;;;;;5057389;28;20032;-58
2024/03/05 14:18:09;;;;;;;19.40;10.35;;;;;;;;;;5057566;28;20270;-57
2024/03/05 14:20:35;;;;;;;16.27;9.13;;;;;;;;;;5059401;28;20033;-58
2024/03/05 14:23:00;;;;;;;14.25;9.32;;;;;;;;;;5057981;28;20266;-58